createdAt,value
2022-12-19T00:01:39.454Z,12.50
2022-12-19T00:04:10.020Z,11.13
2022-12-19T00:06:42.300Z,12.67
2022-12-19T00:09:12.838Z,10.70
2022-12-19T00:11:40.821Z,10.45
2022-12-19T00:14:10.986Z,10.00
2022-12-19T00:16:37.846Z,10.37
2022-12-19T00:19:05.324Z,10.70
2022-12-19T00:21:34.936Z,10.33
2022-12-19T00:24:05.210Z,12.70
2022-12-19T00:26:43.742Z,11.47
2022-12-19T00:29:14.249Z,11.27
2022-12-19T00:31:41.646Z,11.13
2022-12-19T00:34:09.644Z,11.23
2022-12-19T00:36:36.459Z,9.93
2022-12-19T00:39:08.108Z,14.37
2022-12-19T00:41:37.584Z,11.63
2022-12-19T00:44:12.363Z,12.30
2022-12-19T00:46:39.338Z,11.97
2022-12-19T00:49:06.823Z,11.50
2022-12-19T00:51:36.439Z,11.50
2022-12-19T00:54:05.465Z,10.77
2022-12-19T00:56:37.569Z,11.90
2022-12-19T00:59:05.285Z,12.00
2022-12-19T01:01:38.161Z,10.37
2022-12-19T01:06:54.041Z,12.70
2022-12-19T01:09:25.216Z,13.57
2022-12-19T01:12:10.623Z,12.10
2022-12-19T01:14:37.678Z,13.30
2022-12-19T01:17:04.471Z,17.47
2022-12-19T01:19:31.545Z,15.83
2022-12-19T01:21:58.353Z,15.67
2022-12-19T01:24:26.135Z,17.73
2022-12-19T01:26:52.985Z,22.43
2022-12-19T01:29:20.093Z,42.10
2022-12-19T01:31:46.958Z,22.07
2022-12-19T01:34:14.073Z,18.03
2022-12-19T01:36:40.844Z,20.07
2022-12-19T01:39:08.192Z,31.33
2022-12-19T01:41:35.879Z,27.73
2022-12-19T01:44:05.896Z,20.40
2022-12-19T01:46:40.116Z,23.00
2022-12-19T01:49:15.964Z,33.07
2022-12-19T01:51:47.893Z,17.63
2022-12-19T01:54:19.908Z,14.33
2022-12-19T01:56:50.950Z,12.50
2022-12-19T01:59:22.975Z,15.10
2022-12-19T02:01:55.426Z,13.37
2022-12-19T02:04:26.335Z,12.50
2022-12-19T02:06:58.392Z,15.47
2022-12-19T02:09:25.628Z,13.27
2022-12-19T02:11:53.373Z,12.80
2022-12-19T02:14:20.947Z,14.77
2022-12-19T02:16:47.807Z,14.47
2022-12-19T02:19:41.185Z,16.23
2022-12-19T02:22:19.000Z,17.27
2022-12-19T02:25:16.690Z,18.33
2022-12-19T02:28:31.460Z,15.68
2022-12-19T02:31:21.091Z,16.83
2022-12-19T02:34:04.367Z,17.17
2022-12-19T02:36:43.532Z,17.07
2022-12-19T02:39:18.748Z,16.10
2022-12-19T02:41:51.435Z,15.00
2022-12-19T02:44:25.703Z,14.07
2022-12-19T02:46:53.401Z,14.97
2022-12-19T02:49:30.691Z,13.10
2022-12-19T02:51:58.482Z,14.80
2022-12-19T02:54:25.699Z,12.20
2022-12-19T02:57:03.017Z,11.52
2022-12-19T03:00:00.418Z,12.93
2022-12-19T03:03:05.448Z,13.70
2022-12-19T03:05:46.619Z,14.70
2022-12-19T03:08:19.476Z,15.37
2022-12-19T03:10:51.013Z,15.23
2022-12-19T03:13:26.883Z,15.27
2022-12-19T03:15:53.736Z,16.47
2022-12-19T03:18:21.079Z,12.83
2022-12-19T03:20:52.220Z,12.60
2022-12-19T03:23:19.850Z,13.60
2022-12-19T03:25:51.052Z,15.80
2022-12-19T03:28:31.504Z,17.10
2022-12-19T03:31:00.872Z,11.33
2022-12-19T03:33:31.473Z,13.63
2022-12-19T03:36:03.836Z,11.20
2022-12-19T03:38:33.295Z,12.43
2022-12-19T03:41:02.643Z,12.37
2022-12-19T03:43:32.652Z,13.40
2022-12-19T03:46:10.117Z,17.27
2022-12-19T03:48:47.964Z,16.80
2022-12-19T03:51:44.531Z,10.98
2022-12-19T03:54:25.721Z,17.05
2022-12-19T03:57:02.181Z,15.20
2022-12-19T03:59:43.957Z,15.77
2022-12-19T04:02:13.920Z,13.27
2022-12-19T04:04:46.123Z,11.30
2022-12-19T04:07:15.007Z,12.67
2022-12-19T04:09:45.155Z,11.40
2022-12-19T04:12:17.119Z,11.97
2022-12-19T04:14:44.701Z,14.53
2022-12-19T04:17:29.497Z,13.63
2022-12-19T04:20:04.668Z,13.73
2022-12-19T04:22:36.743Z,12.03
2022-12-19T04:25:07.966Z,11.63
2022-12-19T04:27:37.114Z,13.43
2022-12-19T04:30:07.256Z,14.87
2022-12-19T04:32:36.385Z,13.53
2022-12-19T04:35:03.710Z,12.53
2022-12-19T04:37:31.475Z,13.00
2022-12-19T04:39:58.748Z,12.85
2022-12-19T04:42:25.653Z,14.77
2022-12-19T04:44:52.832Z,15.95
2022-12-19T04:47:19.611Z,12.93
2022-12-19T04:49:46.737Z,17.27
2022-12-19T04:52:13.517Z,15.73
2022-12-19T04:54:40.670Z,13.67
2022-12-19T04:57:07.492Z,13.57
2022-12-19T04:59:34.727Z,11.30
2022-12-19T05:02:01.603Z,12.90
2022-12-19T05:04:28.784Z,16.00
2022-12-19T05:06:55.593Z,14.53
2022-12-19T05:09:22.727Z,15.87
2022-12-19T05:11:50.106Z,16.92
2022-12-19T05:14:17.195Z,16.13
2022-12-19T05:16:43.963Z,18.93
2022-12-19T05:19:11.050Z,22.83
2022-12-19T05:21:37.835Z,20.03
2022-12-19T05:24:05.406Z,26.90
2022-12-19T05:26:32.220Z,38.70
2022-12-19T05:28:59.301Z,41.43
2022-12-19T05:31:26.155Z,40.97
2022-12-19T05:33:53.255Z,32.08
2022-12-19T05:36:20.385Z,24.10
2022-12-19T05:38:47.545Z,32.53
2022-12-19T05:41:16.535Z,33.43
2022-12-19T05:43:51.750Z,37.93
2022-12-19T05:46:19.392Z,47.23
2022-12-19T05:48:46.855Z,34.70
2022-12-19T05:51:14.470Z,42.22
2022-12-19T05:53:42.181Z,31.95
2022-12-19T05:56:14.540Z,25.85
2022-12-19T05:58:43.001Z,23.63
2022-12-19T06:03:48.473Z,28.13
2022-12-19T06:06:17.463Z,28.52
2022-12-19T06:08:44.975Z,21.83
2022-12-19T06:11:13.115Z,21.27
2022-12-19T06:13:41.108Z,24.97
2022-12-19T06:16:11.620Z,25.98
2022-12-19T06:18:44.293Z,28.40
2022-12-19T06:21:15.073Z,24.43
2022-12-19T06:23:43.184Z,22.57
2022-12-19T06:26:18.298Z,27.65
2022-12-19T06:28:46.842Z,23.33
2022-12-19T06:31:14.289Z,27.60
2022-12-19T06:33:41.596Z,24.40
2022-12-19T06:36:13.837Z,25.73
2022-12-19T06:38:40.914Z,23.70
2022-12-19T06:41:28.803Z,26.37
2022-12-19T06:44:04.058Z,16.37
2022-12-19T06:46:31.251Z,20.47
2022-12-19T06:48:58.473Z,28.70
2022-12-19T06:51:25.309Z,27.83
2022-12-19T06:53:52.644Z,25.67
2022-12-19T06:56:20.374Z,20.67
2022-12-19T07:01:38.531Z,20.45
2022-12-19T07:04:07.401Z,21.73
2022-12-19T07:06:34.221Z,24.87
2022-12-19T07:09:01.446Z,29.30
2022-12-19T07:11:28.285Z,22.13
2022-12-19T07:13:55.403Z,38.90
2022-12-19T07:16:22.303Z,38.30
2022-12-19T07:18:49.641Z,40.27
2022-12-19T07:21:16.945Z,34.57
2022-12-19T07:23:44.353Z,31.83
2022-12-19T07:26:11.182Z,28.97
2022-12-19T07:28:38.568Z,33.23
2022-12-19T07:31:05.572Z,33.63
2022-12-19T07:33:32.625Z,30.90
2022-12-19T07:35:59.415Z,42.30
2022-12-19T07:38:26.452Z,46.80
2022-12-19T07:40:53.282Z,51.43
2022-12-19T07:43:20.325Z,41.93
2022-12-19T07:45:47.121Z,45.70
2022-12-19T07:48:14.188Z,46.13
2022-12-19T07:50:41.826Z,43.10
2022-12-19T07:53:08.599Z,44.30
2022-12-19T07:55:35.744Z,42.33
2022-12-19T07:58:03.029Z,41.03
2022-12-19T08:00:31.613Z,45.97
2022-12-19T08:02:59.853Z,38.27
2022-12-19T08:05:27.165Z,43.92
2022-12-19T08:07:54.591Z,56.92
2022-12-19T08:10:22.993Z,88.93
2022-12-19T08:12:49.793Z,61.28
2022-12-19T08:15:16.944Z,58.27
2022-12-19T08:17:43.819Z,48.80
2022-12-19T08:20:11.700Z,44.83
2022-12-19T08:22:38.542Z,43.45
2022-12-19T08:25:07.500Z,45.58
2022-12-19T08:27:35.064Z,45.25
2022-12-19T08:30:02.594Z,55.40
2022-12-19T08:32:29.738Z,70.88
2022-12-19T08:34:56.909Z,76.47
2022-12-19T08:37:23.764Z,53.15
2022-12-19T08:39:51.800Z,37.97
2022-12-19T08:42:19.026Z,38.65
2022-12-19T08:44:46.251Z,44.30
2022-12-19T08:47:13.073Z,40.60
2022-12-19T08:49:40.468Z,41.58
2022-12-19T08:52:07.318Z,41.45
2022-12-19T08:54:34.470Z,45.35
2022-12-19T08:57:01.420Z,46.88
2022-12-19T08:59:30.766Z,43.95
2022-12-19T09:02:00.067Z,52.15
2022-12-19T09:05:15.379Z,57.03
2022-12-19T09:07:16.572Z,56.13
2022-12-19T09:09:45.399Z,57.37
2022-12-19T09:12:14.246Z,56.80
2022-12-19T09:14:41.490Z,53.70
2022-12-19T09:17:09.111Z,50.50
2022-12-19T09:19:36.345Z,45.85
2022-12-19T09:22:03.205Z,53.40
2022-12-19T09:24:30.368Z,41.83
2022-12-19T09:26:57.112Z,37.45
2022-12-19T09:29:25.119Z,32.75
2022-12-19T09:31:56.156Z,37.05
2022-12-19T09:34:37.871Z,37.95
2022-12-19T09:37:16.375Z,33.38
2022-12-19T09:39:48.249Z,37.25
2022-12-19T09:42:20.703Z,33.55
2022-12-19T09:45:05.889Z,32.95
2022-12-19T09:47:38.955Z,33.97
2022-12-19T09:50:24.432Z,32.78
2022-12-19T09:53:08.134Z,39.55
2022-12-19T09:55:39.760Z,34.70
2022-12-19T09:58:12.690Z,38.33
2022-12-19T10:00:58.671Z,36.38
2022-12-19T10:04:22.353Z,35.65
2022-12-19T10:07:14.004Z,31.85
2022-12-19T10:11:35.217Z,33.50
2022-12-19T10:13:13.010Z,31.92
2022-12-19T10:16:04.027Z,32.53
2022-12-19T10:18:56.890Z,34.85
2022-12-19T10:22:16.380Z,35.50
2022-12-19T10:24:45.134Z,32.35
2022-12-19T10:27:59.840Z,34.47
2022-12-19T10:30:32.331Z,34.53
2022-12-19T10:33:21.198Z,33.13
2022-12-19T10:36:01.770Z,35.50
2022-12-19T10:38:35.388Z,36.88
2022-12-19T10:41:19.185Z,31.25
2022-12-19T10:44:09.662Z,32.35
2022-12-19T10:46:46.226Z,33.22
2022-12-19T10:49:14.328Z,31.05
2022-12-19T10:51:42.441Z,29.23
2022-12-19T10:54:09.486Z,32.70
2022-12-19T10:56:37.980Z,38.70
2022-12-19T10:59:16.673Z,30.90
2022-12-19T11:01:44.948Z,36.08
2022-12-19T11:04:19.375Z,55.67
2022-12-19T11:07:04.696Z,44.72
2022-12-19T11:09:40.801Z,28.98
2022-12-19T11:16:32.247Z,33.03
2022-12-19T11:19:26.073Z,31.40
2022-12-19T11:29:16.610Z,29.20
2022-12-19T11:29:43.288Z,35.00
2022-12-19T11:29:46.426Z,34.10
2022-12-19T11:30:39.546Z,32.47
2022-12-19T11:32:43.071Z,33.45
2022-12-19T11:35:14.757Z,34.92
2022-12-19T11:37:56.033Z,33.80
2022-12-19T11:40:49.341Z,36.38
2022-12-19T11:43:43.594Z,37.50
2022-12-19T11:46:49.320Z,38.53
2022-12-19T11:49:34.836Z,33.95
2022-12-19T11:52:36.966Z,36.70
2022-12-19T11:55:15.706Z,30.80
2022-12-19T11:57:43.335Z,34.63
2022-12-19T12:00:20.963Z,35.13
2022-12-19T12:03:03.218Z,34.67
2022-12-19T12:05:46.444Z,35.22
2022-12-19T12:09:06.958Z,29.20
2022-12-19T12:17:48.817Z,32.92
2022-12-19T12:21:28.095Z,31.52
2022-12-19T12:31:03.928Z,27.75
2022-12-19T12:31:04.352Z,27.55
2022-12-19T12:31:51.871Z,27.67
2022-12-19T12:31:52.581Z,27.48
2022-12-19T12:31:56.857Z,28.25
2022-12-19T12:35:28.859Z,31.52
2022-12-19T12:39:01.402Z,25.23
2022-12-19T12:42:05.472Z,26.63
2022-12-19T12:44:44.777Z,25.63
2022-12-19T12:47:22.298Z,25.08
2022-12-19T12:49:55.606Z,26.48
2022-12-19T12:52:31.642Z,27.95
2022-12-19T12:54:59.068Z,26.48
2022-12-19T12:57:28.999Z,21.92
2022-12-19T13:00:17.946Z,24.50
2022-12-19T13:02:50.349Z,24.40
2022-12-19T13:05:43.816Z,25.63
2022-12-19T13:08:36.654Z,25.55
2022-12-19T13:11:45.090Z,25.48
2022-12-19T13:14:39.823Z,21.13
2022-12-19T13:17:10.751Z,27.65
2022-12-19T13:19:39.947Z,31.80
2022-12-19T13:22:16.618Z,28.55
2022-12-19T13:24:51.760Z,27.90
2022-12-19T13:27:18.751Z,25.73
2022-12-19T13:30:01.012Z,27.85
2022-12-19T13:32:54.213Z,33.28
2022-12-19T13:36:59.555Z,94.47
2022-12-19T13:39:56.270Z,47.50
2022-12-19T13:41:47.920Z,73.43
2022-12-19T13:44:21.386Z,39.77
2022-12-19T13:46:48.841Z,41.40
2022-12-19T13:49:34.615Z,39.83
2022-12-19T13:52:04.833Z,33.13
2022-12-19T13:54:44.777Z,48.03
2022-12-19T13:57:22.155Z,42.83
2022-12-19T14:00:00.523Z,35.63
2022-12-19T14:02:44.498Z,41.88
2022-12-19T14:06:15.189Z,37.57
2022-12-19T14:08:24.621Z,59.10
2022-12-19T14:11:41.660Z,48.40
2022-12-19T14:14:19.188Z,38.08
2022-12-19T14:16:47.631Z,36.87
2022-12-19T14:19:25.911Z,40.77
2022-12-19T14:22:09.846Z,41.17
2022-12-19T14:24:41.216Z,42.73
2022-12-19T14:28:24.084Z,38.97
2022-12-19T14:30:29.902Z,37.80
2022-12-19T14:33:44.185Z,63.40
2022-12-19T14:36:10.695Z,57.80
2022-12-19T14:39:23.052Z,48.77
2022-12-19T14:41:47.093Z,47.55
2022-12-19T14:52:35.250Z,45.97
2022-12-19T14:53:10.811Z,52.63
2022-12-19T14:54:13.814Z,43.93
2022-12-19T14:54:33.979Z,40.60
2022-12-19T14:56:04.255Z,39.53
2022-12-19T14:58:52.225Z,37.10
2022-12-19T15:01:25.842Z,33.97
2022-12-19T15:04:47.420Z,36.57
2022-12-19T15:07:08.494Z,37.00
2022-12-19T15:10:59.425Z,31.45
2022-12-19T15:14:51.670Z,34.10
2022-12-19T15:15:59.496Z,32.80
2022-12-19T15:18:32.577Z,33.37
2022-12-19T15:21:12.813Z,35.07
2022-12-19T15:23:40.489Z,47.57
2022-12-19T15:26:13.180Z,39.83
2022-12-19T15:28:43.180Z,38.73
2022-12-19T15:31:26.459Z,45.00
2022-12-19T15:34:32.125Z,43.13
2022-12-19T15:36:40.836Z,52.27
2022-12-19T15:39:08.024Z,49.83
2022-12-19T15:41:35.412Z,59.67
2022-12-19T15:44:30.362Z,65.50
2022-12-19T15:46:57.715Z,68.60
2022-12-19T15:49:25.023Z,71.30
2022-12-19T15:51:52.203Z,102.27
2022-12-19T15:54:48.083Z,83.00
2022-12-19T15:57:06.492Z,75.33
2022-12-19T15:59:38.871Z,67.37
2022-12-19T16:02:16.865Z,66.13
2022-12-19T16:07:17.478Z,55.83
2022-12-19T16:09:44.626Z,45.93
2022-12-19T16:12:16.866Z,43.80
2022-12-19T16:14:46.110Z,49.07
2022-12-19T16:17:20.056Z,52.93
2022-12-19T16:19:47.351Z,45.53
2022-12-19T16:22:23.934Z,44.37
2022-12-19T16:24:52.855Z,45.87
2022-12-19T16:27:29.162Z,58.17
2022-12-19T16:29:58.935Z,64.23
2022-12-19T16:32:25.816Z,64.10
2022-12-19T16:34:53.933Z,60.93
2022-12-19T16:37:20.757Z,57.42
2022-12-19T16:39:47.878Z,51.47
2022-12-19T16:42:16.399Z,47.43
2022-12-19T16:44:45.875Z,42.77
2022-12-19T16:47:15.129Z,43.10
2022-12-19T16:49:42.788Z,65.47
2022-12-19T16:52:09.585Z,49.70
2022-12-19T16:54:36.731Z,48.30
2022-12-19T16:57:06.853Z,44.90
2022-12-19T16:59:37.239Z,48.03
2022-12-19T17:02:36.479Z,56.57
2022-12-19T17:05:04.608Z,77.93
2022-12-19T17:07:32.129Z,83.50
2022-12-19T17:09:58.923Z,82.30
2022-12-19T17:12:27.729Z,68.47
2022-12-19T17:17:21.620Z,60.73
2022-12-19T17:19:48.389Z,41.57
2022-12-19T17:22:18.516Z,51.37
2022-12-19T17:24:46.773Z,45.43
2022-12-19T17:29:41.106Z,36.97
2022-12-19T17:32:21.493Z,30.23
2022-12-19T17:34:50.837Z,29.40
2022-12-19T17:37:18.029Z,25.87
2022-12-19T17:39:44.792Z,17.63
2022-12-19T17:42:19.995Z,13.50
2022-12-19T17:44:46.899Z,15.67
2022-12-19T17:47:19.813Z,17.40
2022-12-19T17:49:48.102Z,17.53
2022-12-19T17:52:17.918Z,24.80
2022-12-19T17:54:45.116Z,14.70
2022-12-19T17:57:17.294Z,23.47
2022-12-19T17:59:46.424Z,22.23
2022-12-19T18:02:22.701Z,24.67
2022-12-19T18:04:50.716Z,10.67
2022-12-19T18:07:18.547Z,12.50
2022-12-19T18:09:45.446Z,8.90
2022-12-19T18:12:12.623Z,7.93
2022-12-19T18:14:39.437Z,7.10
2022-12-19T18:17:06.711Z,6.87
2022-12-19T18:19:34.787Z,6.37
2022-12-19T18:22:02.046Z,7.15
2022-12-19T18:24:28.910Z,8.70
2022-12-19T18:26:56.054Z,8.07
2022-12-19T18:29:22.921Z,7.37
2022-12-19T18:31:51.352Z,8.13
2022-12-19T18:34:26.078Z,8.25
2022-12-19T18:36:53.574Z,7.70
2022-12-19T18:39:23.936Z,7.77
2022-12-19T18:41:51.713Z,8.30
2022-12-19T18:44:18.664Z,10.40
2022-12-19T18:46:46.522Z,9.73
2022-12-19T18:49:14.922Z,11.03
2022-12-19T18:51:43.006Z,9.20
2022-12-19T18:54:18.500Z,9.60
2022-12-19T18:56:46.173Z,8.40
2022-12-19T18:59:13.374Z,7.20
2022-12-19T19:01:46.631Z,9.43
2022-12-19T19:04:18.044Z,7.53
2022-12-19T19:06:52.058Z,8.23
2022-12-19T19:09:20.552Z,8.70
2022-12-19T19:11:48.178Z,7.82
2022-12-19T19:14:15.008Z,7.73
2022-12-19T19:16:42.348Z,7.10
2022-12-19T19:19:14.512Z,8.57
2022-12-19T19:21:42.931Z,8.87
2022-12-19T19:24:14.957Z,10.48
2022-12-19T19:26:42.233Z,9.27
2022-12-19T19:29:09.776Z,8.90
2022-12-19T19:31:40.815Z,7.07
2022-12-19T19:34:29.784Z,7.43
2022-12-19T19:37:00.999Z,7.63
2022-12-19T19:39:28.302Z,7.27
2022-12-19T19:41:56.453Z,9.33
2022-12-19T19:44:23.352Z,8.10
2022-12-19T19:46:50.583Z,8.73
2022-12-19T19:49:17.455Z,8.27
2022-12-19T19:51:44.785Z,8.80
2022-12-19T19:54:11.697Z,7.60
2022-12-19T19:56:39.105Z,8.73
2022-12-19T19:59:06.200Z,8.63
2022-12-19T20:01:33.708Z,8.00
2022-12-19T20:04:00.679Z,6.43
2022-12-19T20:06:27.824Z,6.17
2022-12-19T20:08:54.636Z,5.27
2022-12-19T20:11:21.972Z,5.27
2022-12-19T20:13:49.000Z,6.20
2022-12-19T20:16:18.297Z,5.47
2022-12-19T20:18:52.994Z,6.00
2022-12-19T20:21:21.255Z,5.23
2022-12-19T20:23:48.435Z,5.23
2022-12-19T20:26:16.877Z,5.50
2022-12-19T20:28:48.960Z,4.57
2022-12-19T20:31:19.801Z,5.40
2022-12-19T20:33:48.419Z,4.17
2022-12-19T20:38:43.751Z,4.73
2022-12-19T20:41:10.916Z,5.83
2022-12-19T20:43:38.600Z,6.83
2022-12-19T20:46:14.719Z,6.17
2022-12-19T20:48:42.504Z,6.93
2022-12-19T20:51:10.192Z,6.07
2022-12-19T20:53:38.769Z,6.00
2022-12-19T20:56:07.291Z,5.82
2022-12-19T20:58:36.268Z,5.65
2022-12-19T21:01:18.446Z,5.87
2022-12-19T21:03:48.047Z,6.40
2022-12-19T21:06:19.265Z,5.43
2022-12-19T21:08:47.045Z,6.23
2022-12-19T21:11:15.677Z,7.10
2022-12-19T21:13:42.810Z,6.03
2022-12-19T21:16:13.346Z,5.33
2022-12-19T21:18:42.254Z,5.47
2022-12-19T21:21:13.793Z,6.67
2022-12-19T21:23:41.124Z,6.17
2022-12-19T21:26:08.703Z,5.30
2022-12-19T21:28:35.806Z,5.03
2022-12-19T21:31:07.120Z,5.97
2022-12-19T21:33:34.172Z,5.37
2022-12-19T21:36:19.126Z,7.53
2022-12-19T21:38:48.240Z,6.60
2022-12-19T21:41:19.384Z,5.60
2022-12-19T21:43:48.942Z,5.57
2022-12-19T21:46:17.438Z,6.60
2022-12-19T21:48:46.776Z,4.80
2022-12-19T21:51:15.783Z,6.63
2022-12-19T21:53:42.932Z,7.63
2022-12-19T21:56:25.251Z,6.57
2022-12-19T21:59:13.676Z,7.27
2022-12-19T22:01:41.897Z,6.85
2022-12-19T22:04:17.971Z,6.88
2022-12-19T22:06:45.309Z,7.43
2022-12-19T22:09:17.584Z,5.83
2022-12-19T22:11:45.600Z,7.43
2022-12-19T22:14:16.501Z,7.27
2022-12-19T22:16:44.645Z,7.70
2022-12-19T22:19:15.042Z,6.70
2022-12-19T22:21:42.959Z,5.93
2022-12-19T22:24:12.840Z,6.23
2022-12-19T22:26:40.338Z,5.67
2022-12-19T22:29:09.647Z,7.07
2022-12-19T22:31:38.657Z,6.10
2022-12-19T22:34:12.127Z,7.65
2022-12-19T22:36:40.914Z,4.87
2022-12-19T22:39:11.089Z,6.03
2022-12-19T22:41:39.656Z,7.93
2022-12-19T22:44:06.710Z,5.43
2022-12-19T22:46:37.938Z,6.73
2022-12-19T22:49:07.982Z,5.60
2022-12-19T22:51:36.744Z,7.13
2022-12-19T22:54:04.305Z,6.18
2022-12-19T22:56:33.941Z,6.47
2022-12-19T22:59:06.535Z,8.17
2022-12-19T23:01:37.540Z,5.37
2022-12-19T23:04:45.828Z,6.13
2022-12-19T23:07:12.950Z,7.07
2022-12-19T23:09:39.759Z,6.83
2022-12-19T23:12:06.930Z,6.23
2022-12-19T23:14:33.675Z,5.60
2022-12-19T23:17:00.790Z,5.70
2022-12-19T23:19:27.629Z,5.33
2022-12-19T23:21:54.747Z,5.40
2022-12-19T23:24:21.571Z,5.77
2022-12-19T23:26:48.800Z,5.83
2022-12-19T23:29:15.720Z,6.57
2022-12-19T23:31:45.375Z,6.57
2022-12-19T23:34:12.570Z,6.63
2022-12-19T23:39:26.624Z,4.87
2022-12-19T23:41:53.748Z,6.57
2022-12-19T23:44:20.723Z,6.20
2022-12-19T23:46:47.776Z,5.80
2022-12-19T23:49:14.519Z,5.97
2022-12-19T23:51:41.630Z,6.73
2022-12-19T23:54:09.007Z,5.70
2022-12-19T23:56:36.474Z,6.07
2022-12-19T23:59:03.986Z,5.57
